Terminal Aerodrome Forecast
Issued by NWS

Home | Current Version | Previous Version | Text Only | Print | Product List | Glossary On
Versions: 1 2 3 4 5 6 7 8 9 10 11 12 13
532
FTUS45 KTFX 201748
TAFHLN
TAF
KHLN 201748Z 2018/2118 VRB05KT P6SM SCT080 BKN140 WS020/26025KT
     FM210300 24008KT P6SM BKN080 BKN150=

USA.gov is the U.S. government's official web portal to all federal, state and local government web resources and services.